Time;durP1;ratioP1;P1;durP2;ratioP2;P2;SDS_P1;SDS_P2;PMS_P1;PMS_P2;Temp;Humidity;BMP_temperature;BMP_pressure;BME280_temperature;BME280_humidity;BME280_pressure;Samples;Min_cycle;Max_cycle;Signal;HPM_P1;HPM_P2
2023/06/02 22:02:06;;;;;;;5.90;3.10;;;17.50;64.10;;;;;;5127404;22;20624;-65
2023/06/02 22:04:32;;;;;;;7.82;3.50;;;;;;;;;;5114129;28;20078;-65
2023/06/02 22:06:58;;;;;;;5.38;3.47;;;17.50;64.80;;;;;;5113849;28;20031;-65
2023/06/02 22:09:23;;;;;;;6.00;3.20;;;17.40;65.80;;;;;;5114017;28;20035;-64
2023/06/02 22:11:49;;;;;;;8.18;2.85;;;17.40;66.10;;;;;;5113733;28;20119;-64
2023/06/02 22:14:15;;;;;;;6.28;3.30;;;17.40;66.10;;;;;;5113988;28;20066;-65
2023/06/02 22:16:41;;;;;;;7.18;3.13;;;17.30;65.70;;;;;;5114467;28;20034;-65
2023/06/02 22:19:07;;;;;;;5.80;3.20;;;17.30;65.70;;;;;;5114054;28;20039;-64
2023/06/02 22:21:32;;;;;;;4.57;3.30;;;17.20;66.10;;;;;;5113980;28;20081;-66
2023/06/02 22:23:58;;;;;;;6.10;2.97;;;17.20;66.10;;;;;;5113891;28;20382;-65
2023/06/02 22:26:23;;;;;;;9.07;3.05;;;17.20;66.90;;;;;;5113820;28;20032;-70
2023/06/02 22:28:49;;;;;;;7.85;3.10;;;17.10;66.10;;;;;;5114182;28;20075;-70
2023/06/02 22:31:15;;;;;;;7.63;2.95;;;17.10;66.40;;;;;;5113709;28;20109;-68
2023/06/02 22:33:40;;;;;;;7.25;2.70;;;17.10;67.20;;;;;;5113961;28;20032;-69
2023/06/02 22:36:06;;;;;;;6.82;3.00;;;17.00;66.70;;;;;;5112840;28;20043;-69
2023/06/02 22:38:32;;;;;;;3.78;2.88;;;17.00;66.70;;;;;;5113525;28;20032;-69
2023/06/02 22:40:57;;;;;;;9.60;2.92;;;16.90;67.00;;;;;;5113608;28;20042;-69
2023/06/02 22:43:23;;;;;;;4.40;3.10;;;16.90;67.30;;;;;;5113914;28;20032;-69
2023/06/02 22:45:48;;;;;;;5.90;2.97;;;16.80;67.60;;;;;;5113770;28;20032;-69
2023/06/02 22:48:15;;;;;;;8.73;3.30;;;16.80;67.90;;;;;;5112321;28;20041;-70
2023/06/02 22:50:41;;;;;;;6.07;3.20;;;16.80;68.50;;;;;;5114178;28;20480;-69
2023/06/02 22:53:06;;;;;;;6.03;2.60;;;16.70;69.00;;;;;;5113331;28;20039;-69
2023/06/02 22:55:32;;;;;;;6.10;2.83;;;16.60;69.40;;;;;;5114381;28;20118;-69
2023/06/02 22:57:58;;;;;;;5.78;3.08;;;16.50;69.70;;;;;;5119844;27;20027;-69
2023/06/02 23:00:23;;;;;;;6.20;3.28;;;16.50;70.10;;;;;;5138079;27;20044;-69
2023/06/02 23:02:49;;;;;;;5.25;2.58;;;16.40;70.60;;;;;;5138106;27;20066;-69
2023/06/02 23:05:15;;;;;;;5.65;2.80;;;16.40;70.90;;;;;;5137961;27;20042;-69
2023/06/02 23:07:40;;;;;;;4.57;3.20;;;16.40;71.00;;;;;;5137917;27;20035;-69
2023/06/02 23:10:09;;;;;;;7.00;2.80;;;16.40;71.00;;;;;;5137946;27;20500;-69
2023/06/02 23:12:35;;;;;;;5.18;2.90;;;16.40;71.30;;;;;;5138023;27;20077;-69
2023/06/02 23:15:01;;;;;;;5.55;2.90;;;16.30;71.40;;;;;;5137993;27;20376;-69
2023/06/02 23:17:26;;;;;;;5.13;2.75;;;16.30;71.80;;;;;;5137702;27;20467;-69
2023/06/02 23:19:52;;;;;;;4.93;2.80;;;16.30;71.90;;;;;;5137352;27;20468;-69
2023/06/02 23:22:18;;;;;;;4.88;2.90;;;16.20;72.10;;;;;;5137260;27;20031;-69
2023/06/02 23:24:43;;;;;;;5.35;2.75;;;16.20;72.70;;;;;;5120337;27;20465;-69
2023/06/02 23:27:09;;;;;;;5.90;2.97;;;16.10;72.70;;;;;;5138009;27;20027;-68
2023/06/02 23:29:35;;;;;;;2.67;2.10;;;16.10;73.10;;;;;;5137348;27;20038;-69
2023/06/02 23:32:01;;;;;;;4.78;2.58;;;16.10;73.40;;;;;;5137124;27;20035;-69
2023/06/02 23:34:26;;;;;;;6.35;3.13;;;16.10;73.40;;;;;;5137298;27;20110;-69
2023/06/02 23:36:52;;;;;;;6.82;3.15;;;16.10;73.40;;;;;;5118541;27;20035;-69
2023/06/02 23:39:17;;;;;;;4.80;2.83;;;16.10;73.80;;;;;;5137236;27;20118;-69
2023/06/02 23:41:43;;;;;;;5.38;3.00;;;16.10;74.60;;;;;;5136939;27;20415;-69
2023/06/02 23:44:09;;;;;;;3.97;2.67;;;16.10;74.50;;;;;;5137470;27;20470;-69
2023/06/02 23:46:34;;;;;;;7.18;2.58;;;16.10;74.50;;;;;;5137385;27;20035;-69
2023/06/02 23:49:01;;;;;;;9.98;3.38;;;16.00;75.20;;;;;;5137276;27;20054;-69
2023/06/02 23:51:26;;;;;;;6.72;3.08;;;15.90;75.60;;;;;;5118455;27;20035;-69
2023/06/02 23:53:52;;;;;;;2.67;2.30;;;15.80;76.00;;;;;;5136915;27;20031;-68
2023/06/02 23:56:17;;;;;;;6.05;2.55;;;15.80;76.40;;;;;;5118431;27;20478;-69
2023/06/02 23:58:43;;;;;;;4.15;2.40;;;15.70;77.00;;;;;;5137072;27;20118;-69
